sensor_id;sensor_type;location;lat;lon;timestamp;P1;durP1;ratioP1;P2;durP2;ratioP2
6420;SDS011;3243;50.958;7.012;2023-05-21T00:01:03;16.97;;;12.80;;
6420;SDS011;3243;50.958;7.012;2023-05-21T00:03:33;16.03;;;12.20;;
6420;SDS011;3243;50.958;7.012;2023-05-21T00:06:01;17.03;;;12.23;;
6420;SDS011;3243;50.958;7.012;2023-05-21T00:08:29;16.40;;;10.97;;
6420;SDS011;3243;50.958;7.012;2023-05-21T00:10:56;17.07;;;12.37;;
6420;SDS011;3243;50.958;7.012;2023-05-21T00:13:23;17.60;;;12.60;;
6420;SDS011;3243;50.958;7.012;2023-05-21T00:15:49;15.00;;;11.23;;
6420;SDS011;3243;50.958;7.012;2023-05-21T00:18:16;15.27;;;12.00;;
6420;SDS011;3243;50.958;7.012;2023-05-21T00:20:43;15.83;;;11.97;;
6420;SDS011;3243;50.958;7.012;2023-05-21T00:23:10;16.03;;;11.47;;
6420;SDS011;3243;50.958;7.012;2023-05-21T00:25:37;17.73;;;12.10;;
6420;SDS011;3243;50.958;7.012;2023-05-21T00:28:04;15.90;;;10.97;;
6420;SDS011;3243;50.958;7.012;2023-05-21T00:30:31;16.37;;;10.63;;
6420;SDS011;3243;50.958;7.012;2023-05-21T00:32:58;16.00;;;12.47;;
6420;SDS011;3243;50.958;7.012;2023-05-21T00:35:27;15.00;;;11.83;;
6420;SDS011;3243;50.958;7.012;2023-05-21T00:37:54;17.40;;;12.00;;
6420;SDS011;3243;50.958;7.012;2023-05-21T00:40:21;15.23;;;12.23;;
6420;SDS011;3243;50.958;7.012;2023-05-21T00:42:48;17.33;;;11.77;;
6420;SDS011;3243;50.958;7.012;2023-05-21T00:45:15;15.40;;;12.23;;
6420;SDS011;3243;50.958;7.012;2023-05-21T00:47:42;17.83;;;12.50;;
6420;SDS011;3243;50.958;7.012;2023-05-21T00:50:09;15.77;;;12.10;;
6420;SDS011;3243;50.958;7.012;2023-05-21T00:52:37;21.17;;;13.00;;
6420;SDS011;3243;50.958;7.012;2023-05-21T00:55:07;20.03;;;13.07;;
6420;SDS011;3243;50.958;7.012;2023-05-21T00:57:35;18.00;;;12.17;;
6420;SDS011;3243;50.958;7.012;2023-05-21T01:00:02;17.27;;;12.07;;
6420;SDS011;3243;50.958;7.012;2023-05-21T01:02:32;17.60;;;12.63;;
6420;SDS011;3243;50.958;7.012;2023-05-21T01:05:03;17.77;;;12.27;;
6420;SDS011;3243;50.958;7.012;2023-05-21T01:07:32;18.57;;;12.60;;
6420;SDS011;3243;50.958;7.012;2023-05-21T01:10:04;16.70;;;12.27;;
6420;SDS011;3243;50.958;7.012;2023-05-21T01:12:33;16.50;;;12.93;;
6420;SDS011;3243;50.958;7.012;2023-05-21T01:15:01;17.10;;;12.93;;
6420;SDS011;3243;50.958;7.012;2023-05-21T01:17:29;16.13;;;11.83;;
6420;SDS011;3243;50.958;7.012;2023-05-21T01:19:57;17.63;;;11.87;;
6420;SDS011;3243;50.958;7.012;2023-05-21T01:22:25;16.80;;;12.10;;
6420;SDS011;3243;50.958;7.012;2023-05-21T01:24:57;18.27;;;12.20;;
6420;SDS011;3243;50.958;7.012;2023-05-21T01:27:27;15.90;;;12.07;;
6420;SDS011;3243;50.958;7.012;2023-05-21T01:29:54;15.10;;;11.83;;
6420;SDS011;3243;50.958;7.012;2023-05-21T01:32:37;15.93;;;12.63;;
6420;SDS011;3243;50.958;7.012;2023-05-21T01:35:19;15.67;;;12.33;;
6420;SDS011;3243;50.958;7.012;2023-05-21T01:37:56;18.20;;;12.97;;
6420;SDS011;3243;50.958;7.012;2023-05-21T01:40:44;18.67;;;13.00;;
6420;SDS011;3243;50.958;7.012;2023-05-21T01:43:18;17.73;;;12.40;;
6420;SDS011;3243;50.958;7.012;2023-05-21T01:45:46;17.23;;;13.00;;
6420;SDS011;3243;50.958;7.012;2023-05-21T01:48:13;16.93;;;12.17;;
6420;SDS011;3243;50.958;7.012;2023-05-21T01:50:42;17.80;;;12.37;;
6420;SDS011;3243;50.958;7.012;2023-05-21T01:53:11;20.30;;;12.87;;
6420;SDS011;3243;50.958;7.012;2023-05-21T01:55:38;19.43;;;12.47;;
6420;SDS011;3243;50.958;7.012;2023-05-21T01:58:07;16.37;;;12.43;;
6420;SDS011;3243;50.958;7.012;2023-05-21T02:00:33;17.73;;;12.90;;
6420;SDS011;3243;50.958;7.012;2023-05-21T02:03:00;16.53;;;11.57;;
6420;SDS011;3243;50.958;7.012;2023-05-21T02:05:27;14.60;;;11.47;;
6420;SDS011;3243;50.958;7.012;2023-05-21T02:07:54;15.77;;;12.10;;
6420;SDS011;3243;50.958;7.012;2023-05-21T02:10:20;19.67;;;12.17;;
6420;SDS011;3243;50.958;7.012;2023-05-21T02:12:47;18.73;;;12.00;;
6420;SDS011;3243;50.958;7.012;2023-05-21T02:15:14;14.17;;;11.47;;
6420;SDS011;3243;50.958;7.012;2023-05-21T02:17:43;15.47;;;11.37;;
6420;SDS011;3243;50.958;7.012;2023-05-21T02:20:13;16.43;;;11.53;;
6420;SDS011;3243;50.958;7.012;2023-05-21T02:22:44;14.60;;;11.40;;
6420;SDS011;3243;50.958;7.012;2023-05-21T02:25:13;13.37;;;10.83;;
6420;SDS011;3243;50.958;7.012;2023-05-21T02:27:41;13.03;;;11.17;;
6420;SDS011;3243;50.958;7.012;2023-05-21T02:30:09;12.03;;;10.10;;
6420;SDS011;3243;50.958;7.012;2023-05-21T02:32:37;14.93;;;10.73;;
6420;SDS011;3243;50.958;7.012;2023-05-21T02:35:08;11.43;;;10.07;;
6420;SDS011;3243;50.958;7.012;2023-05-21T02:37:37;13.50;;;11.43;;
6420;SDS011;3243;50.958;7.012;2023-05-21T02:40:06;11.93;;;9.67;;
6420;SDS011;3243;50.958;7.012;2023-05-21T02:42:35;14.30;;;11.20;;
6420;SDS011;3243;50.958;7.012;2023-05-21T02:45:05;11.90;;;9.57;;
6420;SDS011;3243;50.958;7.012;2023-05-21T02:47:36;14.93;;;11.00;;
6420;SDS011;3243;50.958;7.012;2023-05-21T02:50:07;13.67;;;11.00;;
6420;SDS011;3243;50.958;7.012;2023-05-21T02:52:34;14.17;;;10.70;;
6420;SDS011;3243;50.958;7.012;2023-05-21T02:55:01;13.23;;;11.10;;
6420;SDS011;3243;50.958;7.012;2023-05-21T02:57:28;17.07;;;10.87;;
6420;SDS011;3243;50.958;7.012;2023-05-21T02:59:55;16.00;;;10.70;;
6420;SDS011;3243;50.958;7.012;2023-05-21T03:02:21;13.53;;;10.00;;
6420;SDS011;3243;50.958;7.012;2023-05-21T03:04:49;11.63;;;10.20;;
6420;SDS011;3243;50.958;7.012;2023-05-21T03:07:16;13.53;;;10.60;;
6420;SDS011;3243;50.958;7.012;2023-05-21T03:09:44;13.93;;;10.90;;
6420;SDS011;3243;50.958;7.012;2023-05-21T03:12:12;14.43;;;10.10;;
6420;SDS011;3243;50.958;7.012;2023-05-21T03:14:39;12.50;;;9.47;;
6420;SDS011;3243;50.958;7.012;2023-05-21T03:17:09;12.13;;;10.13;;
6420;SDS011;3243;50.958;7.012;2023-05-21T03:19:39;13.53;;;9.50;;
6420;SDS011;3243;50.958;7.012;2023-05-21T03:22:07;12.97;;;10.10;;
6420;SDS011;3243;50.958;7.012;2023-05-21T03:24:34;11.93;;;10.03;;
6420;SDS011;3243;50.958;7.012;2023-05-21T03:27:01;12.47;;;9.37;;
6420;SDS011;3243;50.958;7.012;2023-05-21T03:29:31;11.87;;;9.00;;
6420;SDS011;3243;50.958;7.012;2023-05-21T03:31:59;12.63;;;9.97;;
6420;SDS011;3243;50.958;7.012;2023-05-21T03:34:27;11.07;;;8.63;;
6420;SDS011;3243;50.958;7.012;2023-05-21T03:36:54;12.43;;;9.20;;
6420;SDS011;3243;50.958;7.012;2023-05-21T03:39:20;12.50;;;9.60;;
6420;SDS011;3243;50.958;7.012;2023-05-21T03:41:47;11.93;;;8.23;;
6420;SDS011;3243;50.958;7.012;2023-05-21T03:44:14;13.53;;;9.43;;
6420;SDS011;3243;50.958;7.012;2023-05-21T03:46:41;11.73;;;8.97;;
6420;SDS011;3243;50.958;7.012;2023-05-21T03:49:10;12.50;;;9.50;;
6420;SDS011;3243;50.958;7.012;2023-05-21T03:51:36;12.13;;;9.50;;
6420;SDS011;3243;50.958;7.012;2023-05-21T03:54:04;12.33;;;9.73;;
6420;SDS011;3243;50.958;7.012;2023-05-21T03:56:31;12.30;;;9.00;;
6420;SDS011;3243;50.958;7.012;2023-05-21T03:58:58;12.80;;;9.50;;
6420;SDS011;3243;50.958;7.012;2023-05-21T04:01:24;10.80;;;8.80;;
6420;SDS011;3243;50.958;7.012;2023-05-21T04:03:53;10.57;;;9.40;;
6420;SDS011;3243;50.958;7.012;2023-05-21T04:06:20;12.87;;;9.27;;
6420;SDS011;3243;50.958;7.012;2023-05-21T04:08:47;11.70;;;9.27;;
6420;SDS011;3243;50.958;7.012;2023-05-21T04:11:14;13.53;;;9.57;;
6420;SDS011;3243;50.958;7.012;2023-05-21T04:13:41;9.73;;;8.73;;
6420;SDS011;3243;50.958;7.012;2023-05-21T04:16:08;10.30;;;8.60;;
6420;SDS011;3243;50.958;7.012;2023-05-21T04:18:35;11.80;;;9.50;;
6420;SDS011;3243;50.958;7.012;2023-05-21T04:21:02;12.20;;;9.63;;
6420;SDS011;3243;50.958;7.012;2023-05-21T04:23:29;12.93;;;8.80;;
6420;SDS011;3243;50.958;7.012;2023-05-21T04:25:56;11.97;;;9.50;;
6420;SDS011;3243;50.958;7.012;2023-05-21T04:28:23;12.50;;;9.87;;
6420;SDS011;3243;50.958;7.012;2023-05-21T04:30:49;12.57;;;9.70;;
6420;SDS011;3243;50.958;7.012;2023-05-21T04:33:16;12.50;;;10.10;;
6420;SDS011;3243;50.958;7.012;2023-05-21T04:35:45;11.37;;;8.97;;
6420;SDS011;3243;50.958;7.012;2023-05-21T04:38:15;12.63;;;8.57;;
6420;SDS011;3243;50.958;7.012;2023-05-21T04:40:47;10.60;;;8.80;;
6420;SDS011;3243;50.958;7.012;2023-05-21T04:43:18;13.50;;;9.70;;
6420;SDS011;3243;50.958;7.012;2023-05-21T04:45:51;11.47;;;9.10;;
6420;SDS011;3243;50.958;7.012;2023-05-21T04:48:21;12.03;;;9.07;;
6420;SDS011;3243;50.958;7.012;2023-05-21T04:50:50;13.20;;;9.60;;
6420;SDS011;3243;50.958;7.012;2023-05-21T04:53:18;12.13;;;9.23;;
6420;SDS011;3243;50.958;7.012;2023-05-21T04:55:45;10.77;;;8.90;;
6420;SDS011;3243;50.958;7.012;2023-05-21T04:58:12;13.43;;;9.30;;
6420;SDS011;3243;50.958;7.012;2023-05-21T05:00:39;11.73;;;9.23;;
6420;SDS011;3243;50.958;7.012;2023-05-21T05:03:07;12.83;;;9.70;;
6420;SDS011;3243;50.958;7.012;2023-05-21T05:05:34;11.43;;;9.20;;
6420;SDS011;3243;50.958;7.012;2023-05-21T05:08:01;13.93;;;9.13;;
6420;SDS011;3243;50.958;7.012;2023-05-21T05:10:29;11.57;;;9.30;;
6420;SDS011;3243;50.958;7.012;2023-05-21T05:12:55;11.87;;;9.57;;
6420;SDS011;3243;50.958;7.012;2023-05-21T05:15:22;12.33;;;9.87;;
6420;SDS011;3243;50.958;7.012;2023-05-21T05:17:49;11.90;;;8.80;;
6420;SDS011;3243;50.958;7.012;2023-05-21T05:20:16;12.80;;;9.70;;
6420;SDS011;3243;50.958;7.012;2023-05-21T05:22:43;12.63;;;9.40;;
6420;SDS011;3243;50.958;7.012;2023-05-21T05:25:10;11.80;;;9.00;;
6420;SDS011;3243;50.958;7.012;2023-05-21T05:27:37;12.77;;;9.43;;
6420;SDS011;3243;50.958;7.012;2023-05-21T05:30:04;13.57;;;9.30;;
6420;SDS011;3243;50.958;7.012;2023-05-21T05:32:31;12.37;;;9.87;;
6420;SDS011;3243;50.958;7.012;2023-05-21T05:34:58;12.93;;;10.27;;
6420;SDS011;3243;50.958;7.012;2023-05-21T05:37:27;10.67;;;8.70;;
6420;SDS011;3243;50.958;7.012;2023-05-21T05:39:54;9.93;;;8.57;;
6420;SDS011;3243;50.958;7.012;2023-05-21T05:42:21;12.13;;;9.43;;
6420;SDS011;3243;50.958;7.012;2023-05-21T05:44:48;12.50;;;9.97;;
6420;SDS011;3243;50.958;7.012;2023-05-21T05:47:15;13.53;;;9.50;;
6420;SDS011;3243;50.958;7.012;2023-05-21T05:49:42;13.33;;;9.83;;
6420;SDS011;3243;50.958;7.012;2023-05-21T05:52:08;16.87;;;9.47;;
6420;SDS011;3243;50.958;7.012;2023-05-21T05:54:35;11.60;;;9.57;;
6420;SDS011;3243;50.958;7.012;2023-05-21T05:57:02;14.03;;;9.33;;
6420;SDS011;3243;50.958;7.012;2023-05-21T05:59:29;11.67;;;9.30;;
6420;SDS011;3243;50.958;7.012;2023-05-21T06:01:59;11.70;;;8.90;;
6420;SDS011;3243;50.958;7.012;2023-05-21T06:04:26;12.37;;;8.60;;
6420;SDS011;3243;50.958;7.012;2023-05-21T06:06:55;12.57;;;8.47;;
6420;SDS011;3243;50.958;7.012;2023-05-21T06:09:25;11.33;;;9.23;;
6420;SDS011;3243;50.958;7.012;2023-05-21T06:11:52;11.93;;;8.87;;
6420;SDS011;3243;50.958;7.012;2023-05-21T06:14:19;10.97;;;8.60;;
6420;SDS011;3243;50.958;7.012;2023-05-21T06:16:46;11.37;;;8.87;;
6420;SDS011;3243;50.958;7.012;2023-05-21T06:19:13;10.07;;;8.33;;
6420;SDS011;3243;50.958;7.012;2023-05-21T06:21:39;10.83;;;7.50;;
6420;SDS011;3243;50.958;7.012;2023-05-21T06:24:06;9.53;;;7.90;;
6420;SDS011;3243;50.958;7.012;2023-05-21T06:26:33;13.03;;;9.40;;
6420;SDS011;3243;50.958;7.012;2023-05-21T06:29:00;12.40;;;9.00;;
6420;SDS011;3243;50.958;7.012;2023-05-21T06:31:27;10.03;;;8.50;;
6420;SDS011;3243;50.958;7.012;2023-05-21T06:33:54;10.67;;;9.10;;
6420;SDS011;3243;50.958;7.012;2023-05-21T06:36:21;10.43;;;8.43;;
6420;SDS011;3243;50.958;7.012;2023-05-21T06:38:48;11.63;;;9.10;;
6420;SDS011;3243;50.958;7.012;2023-05-21T06:41:14;12.23;;;9.07;;
6420;SDS011;3243;50.958;7.012;2023-05-21T06:43:41;11.70;;;8.20;;
6420;SDS011;3243;50.958;7.012;2023-05-21T06:46:08;11.27;;;8.82;;
6420;SDS011;3243;50.958;7.012;2023-05-21T06:48:35;9.60;;;8.17;;
6420;SDS011;3243;50.958;7.012;2023-05-21T06:51:02;10.90;;;8.80;;
6420;SDS011;3243;50.958;7.012;2023-05-21T06:53:28;11.57;;;9.10;;
6420;SDS011;3243;50.958;7.012;2023-05-21T06:55:55;10.30;;;8.27;;
6420;SDS011;3243;50.958;7.012;2023-05-21T06:58:22;11.25;;;9.02;;
6420;SDS011;3243;50.958;7.012;2023-05-21T07:00:49;9.20;;;8.18;;
6420;SDS011;3243;50.958;7.012;2023-05-21T07:03:16;10.53;;;8.57;;
6420;SDS011;3243;50.958;7.012;2023-05-21T07:05:43;10.40;;;7.83;;
6420;SDS011;3243;50.958;7.012;2023-05-21T07:08:09;14.20;;;9.25;;
6420;SDS011;3243;50.958;7.012;2023-05-21T07:10:37;11.48;;;7.82;;
6420;SDS011;3243;50.958;7.012;2023-05-21T07:13:04;8.82;;;7.93;;
6420;SDS011;3243;50.958;7.012;2023-05-21T07:15:31;11.98;;;8.70;;
6420;SDS011;3243;50.958;7.012;2023-05-21T07:17:58;11.88;;;8.52;;
6420;SDS011;3243;50.958;7.012;2023-05-21T07:20:24;9.13;;;7.88;;
6420;SDS011;3243;50.958;7.012;2023-05-21T07:22:51;12.73;;;9.73;;
6420;SDS011;3243;50.958;7.012;2023-05-21T07:25:18;11.32;;;8.95;;
6420;SDS011;3243;50.958;7.012;2023-05-21T07:27:45;11.13;;;8.40;;
6420;SDS011;3243;50.958;7.012;2023-05-21T07:30:12;10.45;;;8.73;;
6420;SDS011;3243;50.958;7.012;2023-05-21T07:32:39;11.27;;;8.93;;
6420;SDS011;3243;50.958;7.012;2023-05-21T07:35:06;10.18;;;8.30;;
6420;SDS011;3243;50.958;7.012;2023-05-21T07:37:33;9.40;;;8.35;;
6420;SDS011;3243;50.958;7.012;2023-05-21T07:40:00;10.18;;;8.68;;
6420;SDS011;3243;50.958;7.012;2023-05-21T07:42:27;11.50;;;8.75;;
6420;SDS011;3243;50.958;7.012;2023-05-21T07:44:53;9.45;;;8.18;;
6420;SDS011;3243;50.958;7.012;2023-05-21T07:47:20;10.57;;;8.85;;
6420;SDS011;3243;50.958;7.012;2023-05-21T07:49:48;9.95;;;8.85;;
6420;SDS011;3243;50.958;7.012;2023-05-21T07:52:15;10.95;;;8.50;;
6420;SDS011;3243;50.958;7.012;2023-05-21T07:54:42;12.88;;;8.73;;
6420;SDS011;3243;50.958;7.012;2023-05-21T07:57:09;13.27;;;9.35;;
6420;SDS011;3243;50.958;7.012;2023-05-21T07:59:36;9.82;;;8.68;;
6420;SDS011;3243;50.958;7.012;2023-05-21T08:02:02;10.93;;;8.48;;
6420;SDS011;3243;50.958;7.012;2023-05-21T08:04:29;10.98;;;9.20;;
6420;SDS011;3243;50.958;7.012;2023-05-21T08:06:56;11.13;;;8.98;;
6420;SDS011;3243;50.958;7.012;2023-05-21T08:09:23;11.85;;;8.63;;
6420;SDS011;3243;50.958;7.012;2023-05-21T08:11:50;12.73;;;10.32;;
6420;SDS011;3243;50.958;7.012;2023-05-21T08:14:17;11.45;;;9.52;;
6420;SDS011;3243;50.958;7.012;2023-05-21T08:16:44;11.30;;;8.90;;
6420;SDS011;3243;50.958;7.012;2023-05-21T08:19:11;10.90;;;9.38;;
6420;SDS011;3243;50.958;7.012;2023-05-21T08:21:38;11.43;;;9.23;;
6420;SDS011;3243;50.958;7.012;2023-05-21T08:24:05;11.32;;;9.13;;
6420;SDS011;3243;50.958;7.012;2023-05-21T08:26:32;10.60;;;9.07;;
6420;SDS011;3243;50.958;7.012;2023-05-21T08:28:59;11.43;;;8.95;;
6420;SDS011;3243;50.958;7.012;2023-05-21T08:31:26;12.82;;;10.27;;
6420;SDS011;3243;50.958;7.012;2023-05-21T08:33:53;11.60;;;10.05;;
6420;SDS011;3243;50.958;7.012;2023-05-21T08:36:21;10.43;;;9.32;;
6420;SDS011;3243;50.958;7.012;2023-05-21T08:38:48;11.90;;;9.90;;
6420;SDS011;3243;50.958;7.012;2023-05-21T08:41:15;11.40;;;8.85;;
6420;SDS011;3243;50.958;7.012;2023-05-21T08:43:46;13.75;;;10.48;;
6420;SDS011;3243;50.958;7.012;2023-05-21T08:46:20;12.13;;;9.85;;
6420;SDS011;3243;50.958;7.012;2023-05-21T08:48:50;12.52;;;11.23;;
6420;SDS011;3243;50.958;7.012;2023-05-21T08:51:20;14.90;;;12.18;;
6420;SDS011;3243;50.958;7.012;2023-05-21T08:53:47;13.27;;;11.23;;
6420;SDS011;3243;50.958;7.012;2023-05-21T08:56:16;11.88;;;10.25;;
6420;SDS011;3243;50.958;7.012;2023-05-21T08:58:44;11.80;;;10.05;;
6420;SDS011;3243;50.958;7.012;2023-05-21T09:01:11;11.77;;;10.55;;
6420;SDS011;3243;50.958;7.012;2023-05-21T09:03:39;14.73;;;11.07;;
6420;SDS011;3243;50.958;7.012;2023-05-21T09:06:10;14.60;;;10.82;;
6420;SDS011;3243;50.958;7.012;2023-05-21T09:08:42;13.27;;;10.55;;
6420;SDS011;3243;50.958;7.012;2023-05-21T09:11:11;11.50;;;9.73;;
6420;SDS011;3243;50.958;7.012;2023-05-21T09:13:39;13.90;;;10.77;;
6420;SDS011;3243;50.958;7.012;2023-05-21T09:16:07;13.20;;;10.40;;
6420;SDS011;3243;50.958;7.012;2023-05-21T09:18:35;13.80;;;10.55;;
6420;SDS011;3243;50.958;7.012;2023-05-21T09:21:44;13.27;;;9.95;;
6420;SDS011;3243;50.958;7.012;2023-05-21T09:23:56;12.57;;;11.07;;
6420;SDS011;3243;50.958;7.012;2023-05-21T09:26:24;12.32;;;11.05;;
6420;SDS011;3243;50.958;7.012;2023-05-21T09:28:55;12.32;;;9.98;;
6420;SDS011;3243;50.958;7.012;2023-05-21T09:31:24;13.73;;;10.90;;
6420;SDS011;3243;50.958;7.012;2023-05-21T09:33:52;12.98;;;10.30;;
6420;SDS011;3243;50.958;7.012;2023-05-21T09:36:20;12.25;;;10.07;;
6420;SDS011;3243;50.958;7.012;2023-05-21T09:38:48;10.57;;;9.48;;
6420;SDS011;3243;50.958;7.012;2023-05-21T09:41:17;11.57;;;10.25;;
6420;SDS011;3243;50.958;7.012;2023-05-21T09:43:47;13.85;;;10.75;;
6420;SDS011;3243;50.958;7.012;2023-05-21T09:46:14;13.00;;;10.65;;
6420;SDS011;3243;50.958;7.012;2023-05-21T09:48:45;17.98;;;11.73;;
6420;SDS011;3243;50.958;7.012;2023-05-21T09:51:15;12.02;;;10.73;;
6420;SDS011;3243;50.958;7.012;2023-05-21T09:53:50;11.65;;;10.02;;
6420;SDS011;3243;50.958;7.012;2023-05-21T09:56:23;17.42;;;11.02;;
6420;SDS011;3243;50.958;7.012;2023-05-21T09:58:52;13.40;;;10.90;;
6420;SDS011;3243;50.958;7.012;2023-05-21T10:01:20;11.68;;;9.38;;
6420;SDS011;3243;50.958;7.012;2023-05-21T10:03:49;12.13;;;10.20;;
6420;SDS011;3243;50.958;7.012;2023-05-21T10:06:20;10.82;;;9.38;;
6420;SDS011;3243;50.958;7.012;2023-05-21T10:08:54;11.95;;;10.50;;
6420;SDS011;3243;50.958;7.012;2023-05-21T10:11:22;15.02;;;11.68;;
6420;SDS011;3243;50.958;7.012;2023-05-21T10:13:59;11.38;;;10.18;;
6420;SDS011;3243;50.958;7.012;2023-05-21T10:16:29;14.75;;;11.73;;
6420;SDS011;3243;50.958;7.012;2023-05-21T10:18:59;14.70;;;11.70;;
6420;SDS011;3243;50.958;7.012;2023-05-21T10:21:26;15.20;;;12.02;;
6420;SDS011;3243;50.958;7.012;2023-05-21T10:23:56;13.63;;;11.55;;
6420;SDS011;3243;50.958;7.012;2023-05-21T10:26:23;13.05;;;9.93;;
6420;SDS011;3243;50.958;7.012;2023-05-21T10:28:51;12.02;;;10.60;;
6420;SDS011;3243;50.958;7.012;2023-05-21T10:31:21;13.75;;;10.27;;
6420;SDS011;3243;50.958;7.012;2023-05-21T10:33:49;12.57;;;10.55;;
6420;SDS011;3243;50.958;7.012;2023-05-21T10:36:18;11.77;;;10.15;;
6420;SDS011;3243;50.958;7.012;2023-05-21T10:38:47;12.30;;;10.13;;
6420;SDS011;3243;50.958;7.012;2023-05-21T10:41:14;12.48;;;9.98;;
6420;SDS011;3243;50.958;7.012;2023-05-21T10:43:44;13.77;;;10.40;;
6420;SDS011;3243;50.958;7.012;2023-05-21T11:00:33;12.30;;;10.20;;
6420;SDS011;3243;50.958;7.012;2023-05-21T11:03:00;12.48;;;10.10;;
6420;SDS011;3243;50.958;7.012;2023-05-21T11:06:14;11.25;;;9.18;;
6420;SDS011;3243;50.958;7.012;2023-05-21T11:10:53;12.00;;;10.20;;
6420;SDS011;3243;50.958;7.012;2023-05-21T11:13:20;12.27;;;10.98;;
6420;SDS011;3243;50.958;7.012;2023-05-21T11:21:15;12.82;;;11.13;;
6420;SDS011;3243;50.958;7.012;2023-05-21T11:26:19;11.80;;;9.38;;
6420;SDS011;3243;50.958;7.012;2023-05-21T11:31:29;11.68;;;9.95;;
6420;SDS011;3243;50.958;7.012;2023-05-21T11:36:41;11.27;;;9.52;;
6420;SDS011;3243;50.958;7.012;2023-05-21T11:39:14;10.60;;;9.50;;
6420;SDS011;3243;50.958;7.012;2023-05-21T11:47:09;12.35;;;10.23;;
6420;SDS011;3243;50.958;7.012;2023-05-21T11:49:37;11.30;;;9.70;;
6420;SDS011;3243;50.958;7.012;2023-05-21T11:52:05;11.90;;;10.07;;
6420;SDS011;3243;50.958;7.012;2023-05-21T11:54:36;11.50;;;9.63;;
6420;SDS011;3243;50.958;7.012;2023-05-21T11:57:16;10.75;;;9.60;;
6420;SDS011;3243;50.958;7.012;2023-05-21T11:59:44;13.75;;;10.10;;
6420;SDS011;3243;50.958;7.012;2023-05-21T12:02:15;11.95;;;10.63;;
6420;SDS011;3243;50.958;7.012;2023-05-21T12:04:43;11.60;;;9.95;;
6420;SDS011;3243;50.958;7.012;2023-05-21T12:07:10;10.25;;;9.13;;
6420;SDS011;3243;50.958;7.012;2023-05-21T12:09:41;10.82;;;9.73;;
6420;SDS011;3243;50.958;7.012;2023-05-21T12:12:09;12.00;;;9.68;;
6420;SDS011;3243;50.958;7.012;2023-05-21T12:14:38;10.73;;;9.63;;
6420;SDS011;3243;50.958;7.012;2023-05-21T12:17:08;10.23;;;9.23;;
6420;SDS011;3243;50.958;7.012;2023-05-21T12:19:42;11.02;;;8.63;;
6420;SDS011;3243;50.958;7.012;2023-05-21T12:22:09;12.23;;;10.68;;
6420;SDS011;3243;50.958;7.012;2023-05-21T12:24:36;10.75;;;9.65;;
6420;SDS011;3243;50.958;7.012;2023-05-21T12:27:05;12.00;;;9.52;;
6420;SDS011;3243;50.958;7.012;2023-05-21T12:29:35;12.60;;;9.98;;
6420;SDS011;3243;50.958;7.012;2023-05-21T12:32:07;11.00;;;9.70;;
6420;SDS011;3243;50.958;7.012;2023-05-21T12:34:39;10.60;;;9.50;;
6420;SDS011;3243;50.958;7.012;2023-05-21T12:37:14;10.73;;;9.52;;
6420;SDS011;3243;50.958;7.012;2023-05-21T12:39:42;10.57;;;9.48;;
6420;SDS011;3243;50.958;7.012;2023-05-21T12:42:10;11.65;;;10.02;;
6420;SDS011;3243;50.958;7.012;2023-05-21T12:44:46;11.20;;;9.95;;
6420;SDS011;3243;50.958;7.012;2023-05-21T12:47:13;11.82;;;9.23;;
6420;SDS011;3243;50.958;7.012;2023-05-21T12:49:41;10.90;;;9.07;;
6420;SDS011;3243;50.958;7.012;2023-05-21T12:52:17;10.75;;;9.65;;
6420;SDS011;3243;50.958;7.012;2023-05-21T12:54:48;13.90;;;9.73;;
6420;SDS011;3243;50.958;7.012;2023-05-21T12:57:19;9.65;;;8.65;;
6420;SDS011;3243;50.958;7.012;2023-05-21T13:02:19;11.90;;;8.70;;
6420;SDS011;3243;50.958;7.012;2023-05-21T13:04:57;9.55;;;8.65;;
6420;SDS011;3243;50.958;7.012;2023-05-21T13:07:25;11.10;;;9.38;;
6420;SDS011;3243;50.958;7.012;2023-05-21T13:09:54;11.43;;;9.52;;
6420;SDS011;3243;50.958;7.012;2023-05-21T13:12:22;10.77;;;9.68;;
6420;SDS011;3243;50.958;7.012;2023-05-21T13:14:55;9.70;;;8.73;;
6420;SDS011;3243;50.958;7.012;2023-05-21T13:17:23;10.88;;;8.98;;
6420;SDS011;3243;50.958;7.012;2023-05-21T13:22:41;12.32;;;10.07;;
6420;SDS011;3243;50.958;7.012;2023-05-21T13:25:09;13.10;;;11.63;;
6420;SDS011;3243;50.958;7.012;2023-05-21T13:27:37;11.60;;;9.95;;
6420;SDS011;3243;50.958;7.012;2023-05-21T13:30:04;11.48;;;10.20;;
6420;SDS011;3243;50.958;7.012;2023-05-21T13:32:32;11.70;;;10.50;;
6420;SDS011;3243;50.958;7.012;2023-05-21T13:34:59;12.00;;;10.52;;
6420;SDS011;3243;50.958;7.012;2023-05-21T13:37:26;10.77;;;9.45;;
6420;SDS011;3243;50.958;7.012;2023-05-21T13:39:53;13.20;;;10.25;;
6420;SDS011;3243;50.958;7.012;2023-05-21T13:42:20;12.60;;;9.70;;
6420;SDS011;3243;50.958;7.012;2023-05-21T13:44:47;11.95;;;10.52;;
6420;SDS011;3243;50.958;7.012;2023-05-21T13:47:15;10.80;;;9.60;;
6420;SDS011;3243;50.958;7.012;2023-05-21T13:49:42;12.07;;;10.07;;
6420;SDS011;3243;50.958;7.012;2023-05-21T13:52:08;11.25;;;9.85;;
6420;SDS011;3243;50.958;7.012;2023-05-21T13:54:35;12.50;;;11.20;;
6420;SDS011;3243;50.958;7.012;2023-05-21T13:57:02;12.38;;;9.93;;
6420;SDS011;3243;50.958;7.012;2023-05-21T13:59:29;11.00;;;9.90;;
6420;SDS011;3243;50.958;7.012;2023-05-21T14:01:59;10.98;;;9.75;;
6420;SDS011;3243;50.958;7.012;2023-05-21T14:04:26;10.95;;;9.85;;
6420;SDS011;3243;50.958;7.012;2023-05-21T14:06:52;10.48;;;9.35;;
6420;SDS011;3243;50.958;7.012;2023-05-21T14:09:20;13.63;;;9.73;;
6420;SDS011;3243;50.958;7.012;2023-05-21T14:11:48;11.70;;;9.80;;
6420;SDS011;3243;50.958;7.012;2023-05-21T14:14:15;13.05;;;11.38;;
6420;SDS011;3243;50.958;7.012;2023-05-21T14:16:45;14.57;;;10.18;;
6420;SDS011;3243;50.958;7.012;2023-05-21T14:19:13;11.57;;;10.38;;
6420;SDS011;3243;50.958;7.012;2023-05-21T14:21:40;13.30;;;10.00;;
6420;SDS011;3243;50.958;7.012;2023-05-21T14:24:07;10.93;;;9.63;;
6420;SDS011;3243;50.958;7.012;2023-05-21T14:26:37;11.20;;;10.07;;
6420;SDS011;3243;50.958;7.012;2023-05-21T14:29:06;13.93;;;10.20;;
6420;SDS011;3243;50.958;7.012;2023-05-21T14:31:33;12.23;;;10.93;;
6420;SDS011;3243;50.958;7.012;2023-05-21T14:34:00;11.95;;;10.50;;
6420;SDS011;3243;50.958;7.012;2023-05-21T14:36:28;10.90;;;9.23;;
6420;SDS011;3243;50.958;7.012;2023-05-21T14:38:55;12.73;;;9.20;;
6420;SDS011;3243;50.958;7.012;2023-05-21T14:41:25;10.25;;;8.90;;
6420;SDS011;3243;50.958;7.012;2023-05-21T14:43:52;10.45;;;9.02;;
6420;SDS011;3243;50.958;7.012;2023-05-21T14:46:19;11.27;;;9.65;;
6420;SDS011;3243;50.958;7.012;2023-05-21T14:48:46;12.43;;;9.98;;
6420;SDS011;3243;50.958;7.012;2023-05-21T14:51:13;11.23;;;9.93;;
6420;SDS011;3243;50.958;7.012;2023-05-21T14:53:40;11.48;;;10.27;;
6420;SDS011;3243;50.958;7.012;2023-05-21T14:56:07;13.25;;;10.00;;
6420;SDS011;3243;50.958;7.012;2023-05-21T14:58:34;16.67;;;9.80;;
6420;SDS011;3243;50.958;7.012;2023-05-21T15:01:01;12.50;;;9.60;;
6420;SDS011;3243;50.958;7.012;2023-05-21T15:03:29;12.13;;;10.20;;
6420;SDS011;3243;50.958;7.012;2023-05-21T15:05:56;11.27;;;10.00;;
6420;SDS011;3243;50.958;7.012;2023-05-21T15:08:23;14.30;;;10.30;;
6420;SDS011;3243;50.958;7.012;2023-05-21T15:10:50;14.25;;;10.35;;
6420;SDS011;3243;50.958;7.012;2023-05-21T15:13:17;10.98;;;9.70;;
6420;SDS011;3243;50.958;7.012;2023-05-21T15:15:44;12.68;;;9.73;;
6420;SDS011;3243;50.958;7.012;2023-05-21T15:18:11;11.32;;;10.20;;
6420;SDS011;3243;50.958;7.012;2023-05-21T15:20:38;11.27;;;10.13;;
6420;SDS011;3243;50.958;7.012;2023-05-21T15:23:04;13.60;;;11.38;;
6420;SDS011;3243;50.958;7.012;2023-05-21T15:25:41;12.93;;;11.40;;
6420;SDS011;3243;50.958;7.012;2023-05-21T15:28:08;12.70;;;11.05;;
6420;SDS011;3243;50.958;7.012;2023-05-21T15:30:35;11.52;;;9.90;;
6420;SDS011;3243;50.958;7.012;2023-05-21T15:33:02;11.48;;;10.18;;
6420;SDS011;3243;50.958;7.012;2023-05-21T15:35:28;12.63;;;10.05;;
6420;SDS011;3243;50.958;7.012;2023-05-21T15:37:55;11.27;;;10.18;;
6420;SDS011;3243;50.958;7.012;2023-05-21T15:40:22;11.63;;;9.80;;
6420;SDS011;3243;50.958;7.012;2023-05-21T15:42:52;11.68;;;10.35;;